BOS weather

General Edward Lawrence Logan International Airport
Boston, Massachusetts, United States

Public forecast

Using degrees Fahrenheit for public forecast. Weather courtesy of forecast.io.

METAR (pilot weather report)

Retrieved 2017/08/16 19:54 UTC (1 hour ago):

KBOS 161954Z 32010G14KT 290V350 10SM SCT055 BKN240 29/14 A2991 RMK AO2 SLP126 T02890139

TAF (pilot weather forecast)

Retrieved 2017/08/16 18:30 UTC (2 hours ago):

TAF KBOS 161722Z 1618/1724 34010KT P6SM SCT050 FM162000 35006KT P6SM FEW060 FM171500 10008KT P6SM FEW250 FM171800 14008KT P6SM SKC